Time;durP1;ratioP1;P1;durP2;ratioP2;P2;SDS_P1;SDS_P2;PMS_P1;PMS_P2;Temp;Humidity;BMP_temperature;BMP_pressure;BME280_temperature;BME280_humidity;BME280_pressure;Samples;Min_cycle;Max_cycle;Signal;HPM_P1;HPM_P2
2021/07/20 14:41:45;;;;;;;6.45;5.75;;;;;;;23.17;64.36;98692.78;1773041;79;22854;-60
2021/07/20 14:44:12;;;;;;;12.58;7.28;;;;;;;23.96;62.23;98679.95;1732051;81;20891;-61
2021/07/20 14:46:41;;;;;;;8.88;7.12;;;;;;;24.32;60.42;98689.67;1669935;83;21931;-61
2021/07/20 14:49:09;;;;;;;10.28;7.30;;;;;;;24.41;59.82;98687.17;1698988;81;20950;-61
2021/07/20 14:51:36;;;;;;;10.58;7.97;;;;;;;24.54;58.89;98690.11;1669644;83;20993;-64
2021/07/20 14:54:02;;;;;;;11.28;8.00;;;;;;;24.67;58.69;98684.59;1697387;81;20962;-62
2021/07/20 14:56:28;;;;;;;13.05;8.08;;;;;;;24.79;57.75;98685.13;1684383;83;21057;-60
2021/07/20 14:58:57;;;;;;;9.03;7.28;;;;;;;24.93;57.69;98682.56;1698245;83;21919;-60
2021/07/20 15:01:30;;;;;;;7.28;6.17;;;;;;;25.00;57.41;98687.16;1683740;83;21551;-58
2021/07/20 15:04:00;;;;;;;7.92;6.22;;;;;;;25.09;56.51;98678.66;1688733;83;20979;-58
2021/07/20 15:06:30;;;;;;;10.48;6.47;;;;;;;25.17;55.70;98679.41;1705039;83;20912;-57
2021/07/20 15:09:03;;;;;;;10.00;5.70;;;;;;;25.20;54.70;98676.13;1692874;83;21578;-59
2021/07/20 15:12:42;;;;;;;6.12;5.47;;;;;;;25.05;54.72;98668.90;1781883;78;21658;-53
2021/07/20 15:15:09;;;;;;;8.30;5.70;;;;;;;25.14;53.91;98671.27;1735564;80;20927;-54
2021/07/20 15:17:35;;;;;;;8.15;5.05;;;;;;;25.21;52.27;98665.52;1736742;80;21197;-54
2021/07/20 15:20:06;;;;;;;7.58;5.37;;;;;;;25.21;51.90;98668.23;1718033;81;21519;-54
2021/07/20 15:22:33;;;;;;;6.37;5.20;;;;;;;25.20;51.98;98665.78;1731453;80;20907;-54
2021/07/20 15:25:00;;;;;;;6.45;5.72;;;;;;;25.17;52.24;98660.36;1736295;80;21049;-53
2021/07/20 15:27:26;;;;;;;9.68;5.80;;;;;;;25.14;52.46;98665.82;1706389;81;21481;-51
2021/07/20 15:29:58;;;;;;;11.43;5.72;;;;;;;25.13;52.34;98662.03;1733783;80;21177;-53
2021/07/20 15:32:27;;;;;;;11.70;5.80;;;;;;;25.11;52.59;98665.02;1729006;80;21484;-55
2021/07/20 15:34:54;;;;;;;9.00;6.72;;;;;;;25.10;52.76;98665.32;1732215;80;21040;-55
2021/07/20 15:37:24;;;;;;;8.53;6.08;;;;;;;25.09;52.83;98662.33;1729794;80;21599;-54
2021/07/20 15:39:59;;;;;;;8.20;5.45;;;;;;;25.06;52.34;98669.69;1733051;80;21053;-54
2021/07/20 15:42:35;;;;;;;7.28;5.83;;;;;;;25.02;52.17;98671.36;1736209;80;21236;-54
2021/07/20 15:45:12;;;;;;;7.97;6.28;;;;;;;24.98;52.48;98664.84;1735083;80;20997;-56
2021/07/20 15:47:41;;;;;;;7.25;6.53;;;;;;;24.95;52.76;98669.52;1670201;83;21145;-54
2021/07/20 15:50:12;;;;;;;8.13;5.87;;;;;;;24.92;53.64;98672.26;1709964;83;21050;-54
2021/07/20 15:52:39;;;;;;;6.95;5.78;;;;;;;24.91;53.79;98665.72;1693785;83;20981;-54
2021/07/20 15:55:07;;;;;;;7.85;6.03;;;;;;;24.86;54.65;98665.75;1692997;83;21267;-54
2021/07/20 15:57:34;;;;;;;7.75;6.83;;;;;;;24.78;54.98;98666.31;1698081;83;21498;-54
2021/07/20 16:00:00;;;;;;;8.98;6.40;;;;;;;24.75;54.31;98666.87;1685035;83;20959;-54
2021/07/20 16:02:27;;;;;;;9.03;6.47;;;;;;;24.69;53.92;98667.45;1678818;83;21005;-54
2021/07/20 16:04:57;;;;;;;10.48;6.78;;;;;;;24.67;54.19;98666.11;1686467;83;21761;-54
2021/07/20 16:07:24;;;;;;;9.13;6.67;;;;;;;24.64;55.22;98668.84;1695274;83;21492;-54
2021/07/20 16:09:50;;;;;;;8.80;6.45;;;;;;;24.64;56.14;98674.84;1696611;83;20964;-54
2021/07/20 16:12:17;;;;;;;9.20;6.58;;;;;;;24.56;56.84;98674.32;1689839;83;20952;-54
2021/07/20 16:14:43;;;;;;;9.10;7.50;;;;;;;24.53;56.79;98675.45;1705907;83;20960;-54
2021/07/20 16:17:14;;;;;;;8.10;6.95;;;;;;;24.43;56.54;98670.84;1687829;83;21082;-54
2021/07/20 16:19:41;;;;;;;10.82;7.75;;;;;;;24.41;57.11;98672.22;1741616;80;21162;-54
2021/07/20 16:22:07;;;;;;;11.93;7.95;;;;;;;24.37;56.57;98670.62;1742144;80;20950;-54
2021/07/20 16:24:40;;;;;;;8.50;7.50;;;;;;;24.27;56.88;98670.64;1752167;80;21512;-54
2021/07/20 16:27:12;;;;;;;9.68;8.28;;;;;;;24.15;57.64;98666.08;1749497;81;21121;-54
2021/07/20 16:29:36;;;;;;;8.95;8.05;;;;;;;24.10;57.87;98656.59;1743800;81;21050;-58
2021/07/20 16:32:07;;;;;;;9.08;7.45;;;;;;;24.09;58.13;98658.24;1748687;80;21305;-59
2021/07/20 16:34:34;;;;;;;12.25;7.60;;;;;;;23.99;58.44;98649.53;1751766;80;20946;-56
2021/07/20 16:37:00;;;;;;;10.50;7.55;;;;;;;24.00;57.75;98652.53;1751536;81;21061;-56
2021/07/20 16:39:28;;;;;;;7.75;6.92;;;;;;;23.98;58.46;98649.28;1749796;81;21096;-56
2021/07/20 16:41:56;;;;;;;8.63;7.45;;;;;;;23.94;57.71;98648.19;1750657;81;21058;-58
2021/07/20 16:44:23;;;;;;;8.05;7.20;;;;;;;23.95;57.75;98645.75;1749755;81;22045;-54
2021/07/20 16:46:49;;;;;;;8.00;6.65;;;;;;;23.98;58.24;98643.84;1751717;81;20974;-54
2021/07/20 16:49:17;;;;;;;14.80;7.42;;;;;;;23.91;59.07;98640.59;1751604;81;21042;-57
2021/07/20 16:51:44;;;;;;;12.40;7.62;;;;;;;23.88;59.00;98639.81;1752178;80;21054;-57
2021/07/20 16:54:10;;;;;;;7.28;6.58;;;;;;;23.83;58.90;98639.80;1725096;82;21015;-54
2021/07/20 16:56:40;;;;;;;10.88;7.17;;;;;;;23.77;59.50;98643.63;1699610;81;21101;-54
2021/07/20 16:59:07;;;;;;;11.38;7.37;;;;;;;23.73;60.11;98650.69;1746246;80;21062;-55
2021/07/20 17:01:37;;;;;;;9.33;7.65;;;;;;;23.73;59.91;98657.47;1695950;82;21017;-52
2021/07/20 17:04:05;;;;;;;8.60;7.08;;;;;;;23.73;60.02;98660.19;1732628;80;20999;-53
2021/07/20 17:06:33;;;;;;;9.03;7.20;;;;;;;23.68;60.71;98662.91;1739508;81;21002;-53
2021/07/20 17:09:07;;;;;;;9.48;6.65;;;;;;;23.65;60.00;98667.53;1713145;82;21168;-54
2021/07/20 17:11:33;;;;;;;9.48;7.42;;;;;;;23.64;59.89;98670.00;1740848;81;20955;-55
2021/07/20 17:14:09;;;;;;;9.60;7.12;;;;;;;23.64;59.38;98680.31;1715588;81;20946;-53
2021/07/20 17:16:36;;;;;;;10.00;7.17;;;;;;;23.60;58.88;98673.79;1745825;80;21528;-53
2021/07/20 17:19:07;;;;;;;9.35;7.12;;;;;;;23.64;59.38;98682.22;1711191;81;21099;-53
2021/07/20 17:21:37;;;;;;;9.58;6.87;;;;;;;23.63;59.15;98676.50;1748903;80;21177;-54
2021/07/20 17:24:09;;;;;;;9.85;6.80;;;;;;;23.61;58.59;98675.97;1726701;81;21156;-54
2021/07/20 17:26:34;;;;;;;7.80;6.50;;;;;;;23.59;58.25;98670.83;1748474;80;21623;-54
2021/07/20 17:29:01;;;;;;;9.33;7.40;;;;;;;23.58;58.04;98668.37;1751858;80;20978;-54
2021/07/20 17:31:36;;;;;;;8.70;7.80;;;;;;;23.58;58.13;98671.08;1745157;80;21535;-54
2021/07/20 17:34:03;;;;;;;9.55;7.25;;;;;;;23.56;57.92;98674.08;1756298;81;21143;-58
2021/07/20 17:36:31;;;;;;;8.30;7.25;;;;;;;23.57;58.66;98674.33;1748524;81;21300;-54
2021/07/20 17:39:09;;;;;;;7.87;6.92;;;;;;;23.56;59.14;98673.27;1756992;81;20931;-59
2021/07/20 17:42:11;;;;;;;8.08;6.92;;;;;;;23.56;58.99;98670.55;1757133;81;21414;-56
2021/07/20 17:44:11;;;;;;;10.82;8.25;;;;;;;23.52;58.75;98668.91;1750879;81;21421;-58
2021/07/20 17:46:37;;;;;;;13.32;9.03;;;;;;;23.56;58.27;98670.55;1749847;81;21139;-58
2021/07/20 17:49:04;;;;;;;11.88;8.58;;;;;;;23.56;58.01;98665.94;1715047;81;21583;-62
2021/07/20 17:51:39;;;;;;;12.63;9.70;;;;;;;23.55;58.31;98668.38;1758543;80;21053;-59
2021/07/20 17:54:06;;;;;;;14.87;10.15;;;;;;;23.55;58.53;98669.73;1755036;81;20919;-57
2021/07/20 17:56:34;;;;;;;13.22;9.78;;;;;;;23.58;58.71;98673.80;1737847;81;20943;-59
